createdAt,value
2022-09-04T00:02:06.552Z,3.40
2022-09-04T00:04:44.571Z,3.47
2022-09-04T00:07:24.379Z,3.45
2022-09-04T00:10:09.586Z,3.10
2022-09-04T00:12:46.465Z,2.00
2022-09-04T00:15:20.556Z,2.78
2022-09-04T00:17:58.024Z,2.63
2022-09-04T00:20:35.544Z,2.20
2022-09-04T00:23:09.922Z,2.03
2022-09-04T00:25:46.366Z,2.20
2022-09-04T00:28:23.812Z,2.75
2022-09-04T00:31:01.360Z,2.80
2022-09-04T00:33:35.328Z,3.10
2022-09-04T00:36:06.382Z,2.97
2022-09-04T00:38:43.220Z,3.38
2022-09-04T00:41:22.864Z,3.30
2022-09-04T00:44:28.421Z,3.28
2022-09-04T00:47:30.713Z,2.83
2022-09-04T00:50:23.912Z,3.60
2022-09-04T00:53:18.125Z,3.38
2022-09-04T00:55:57.891Z,2.70
2022-09-04T00:58:42.737Z,3.47
2022-09-04T01:01:21.039Z,2.90
2022-09-04T01:04:10.440Z,2.78
2022-09-04T01:06:48.112Z,2.75
2022-09-04T01:09:35.872Z,2.97
2022-09-04T01:12:13.653Z,3.58
2022-09-04T01:14:48.616Z,2.90
2022-09-04T01:17:30.252Z,2.70
2022-09-04T01:20:08.311Z,2.85
2022-09-04T01:23:11.536Z,2.97
2022-09-04T01:26:06.005Z,2.67
2022-09-04T01:28:43.782Z,2.90
2022-09-04T01:31:23.788Z,3.10
2022-09-04T01:34:01.804Z,2.88
2022-09-04T01:36:46.831Z,2.93
2022-09-04T01:39:14.980Z,2.60
2022-09-04T01:41:48.314Z,2.90
2022-09-04T01:44:16.531Z,2.70
2022-09-04T01:46:58.169Z,2.60
2022-09-04T01:49:34.806Z,2.60
2022-09-04T01:52:12.348Z,6.90
2022-09-04T01:54:57.163Z,3.35
2022-09-04T01:57:36.572Z,2.88
2022-09-04T02:00:10.081Z,2.17
2022-09-04T02:02:54.217Z,1.95
2022-09-04T02:05:30.199Z,2.00
2022-09-04T02:08:08.303Z,1.80
2022-09-04T02:10:44.377Z,2.90
2022-09-04T02:13:23.287Z,2.30
2022-09-04T02:16:02.695Z,1.20
2022-09-04T02:18:43.402Z,1.60
2022-09-04T02:21:22.094Z,1.70
2022-09-04T02:24:00.617Z,3.28
2022-09-04T02:26:31.467Z,1.67
2022-09-04T02:29:05.020Z,2.00
2022-09-04T02:31:41.477Z,1.63
2022-09-04T02:34:13.940Z,1.73
2022-09-04T02:36:50.127Z,2.20
2022-09-04T02:39:32.854Z,2.55
2022-09-04T02:42:10.869Z,2.58
2022-09-04T02:44:49.446Z,2.60
2022-09-04T02:47:29.169Z,3.22
2022-09-04T02:50:04.678Z,3.00
2022-09-04T02:52:49.771Z,3.35
2022-09-04T02:55:31.075Z,2.30
2022-09-04T02:58:10.225Z,1.85
2022-09-04T03:00:48.561Z,2.05
2022-09-04T03:03:20.607Z,1.70
2022-09-04T03:05:54.186Z,2.92
2022-09-04T03:08:26.646Z,2.92
2022-09-04T03:10:59.922Z,1.67
2022-09-04T03:13:33.189Z,1.73
2022-09-04T03:16:11.177Z,2.45
2022-09-04T03:19:00.267Z,2.03
2022-09-04T03:21:34.805Z,1.63
2022-09-04T03:24:08.621Z,2.05
2022-09-04T03:26:39.066Z,2.20
2022-09-04T03:29:14.372Z,2.83
2022-09-04T03:31:50.801Z,2.58
2022-09-04T03:34:33.425Z,2.38
2022-09-04T03:37:17.190Z,1.95
2022-09-04T03:39:57.594Z,1.77
2022-09-04T03:42:36.923Z,2.45
2022-09-04T03:45:19.425Z,2.33
2022-09-04T03:48:03.508Z,2.30
2022-09-04T03:50:40.716Z,2.20
2022-09-04T03:53:17.996Z,2.00
2022-09-04T03:56:19.945Z,1.80
2022-09-04T03:58:56.046Z,3.05
2022-09-04T04:01:32.057Z,1.30
2022-09-04T04:04:44.183Z,2.58
2022-09-04T04:07:25.045Z,1.42
2022-09-04T04:10:07.136Z,1.73
2022-09-04T04:12:48.982Z,1.80
2022-09-04T04:15:32.539Z,1.85
2022-09-04T04:18:48.353Z,1.52
2022-09-04T04:21:29.865Z,2.78
2022-09-04T04:24:12.584Z,2.17
2022-09-04T04:26:58.839Z,2.40
2022-09-04T04:29:48.017Z,2.08
2022-09-04T04:32:51.770Z,1.88
2022-09-04T04:35:29.533Z,3.08
2022-09-04T04:38:13.938Z,1.92
2022-09-04T04:41:00.757Z,2.40
2022-09-04T04:43:41.826Z,5.45
2022-09-04T04:46:17.075Z,2.80
2022-09-04T04:49:14.304Z,2.65
2022-09-04T04:52:04.829Z,2.80
2022-09-04T04:55:09.227Z,2.70
2022-09-04T04:57:49.712Z,2.83
2022-09-04T05:00:26.783Z,2.70
2022-09-04T05:03:05.432Z,2.60
2022-09-04T05:05:54.046Z,3.05
2022-09-04T05:08:33.195Z,2.78
2022-09-04T05:11:10.485Z,2.80
2022-09-04T05:13:51.490Z,2.72
2022-09-04T05:16:27.249Z,2.85
2022-09-04T05:19:01.492Z,2.95
2022-09-04T05:21:38.568Z,3.00
2022-09-04T05:24:12.010Z,2.70
2022-09-04T05:26:49.541Z,2.83
2022-09-04T05:29:27.220Z,2.88
2022-09-04T05:32:06.463Z,2.80
2022-09-04T05:34:52.661Z,4.72
2022-09-04T05:37:29.158Z,2.88
2022-09-04T05:40:05.435Z,2.92
2022-09-04T05:43:09.094Z,2.80
2022-09-04T05:45:50.342Z,3.17
2022-09-04T05:48:24.097Z,3.30
2022-09-04T05:51:05.073Z,3.70
2022-09-04T05:54:13.738Z,2.85
2022-09-04T05:57:03.059Z,2.97
2022-09-04T05:59:56.203Z,2.90
2022-09-04T06:03:11.244Z,3.03
2022-09-04T06:05:55.290Z,3.92
2022-09-04T06:08:33.587Z,3.20
2022-09-04T06:11:25.975Z,3.40
2022-09-04T06:14:07.974Z,3.90
2022-09-04T06:17:09.813Z,3.80
2022-09-04T06:19:54.584Z,4.63
2022-09-04T06:22:37.767Z,3.00
2022-09-04T06:25:29.937Z,2.70
2022-09-04T06:28:27.657Z,3.00
2022-09-04T06:31:04.439Z,3.40
2022-09-04T06:33:46.632Z,2.80
2022-09-04T06:36:41.872Z,3.47
2022-09-04T06:39:46.228Z,3.43
2022-09-04T06:42:32.684Z,3.67
2022-09-04T06:45:22.767Z,2.50
2022-09-04T06:48:04.364Z,2.55
2022-09-04T06:50:43.429Z,3.28
2022-09-04T06:53:21.304Z,2.70
2022-09-04T06:56:04.449Z,2.72
2022-09-04T06:59:02.416Z,2.72
2022-09-04T07:01:42.565Z,8.37
2022-09-04T07:04:21.814Z,11.30
2022-09-04T07:07:00.529Z,11.30
2022-09-04T07:09:34.340Z,10.18
2022-09-04T07:12:26.968Z,11.00
2022-09-04T07:15:34.857Z,13.18
2022-09-04T07:18:13.723Z,10.75
2022-09-04T07:20:50.600Z,11.75
2022-09-04T07:23:28.794Z,12.80
2022-09-04T07:26:12.109Z,13.77
2022-09-04T07:28:54.882Z,15.25
2022-09-04T07:31:28.620Z,15.85
2022-09-04T07:34:04.619Z,17.08
2022-09-04T07:36:37.675Z,16.00
2022-09-04T07:39:15.310Z,16.00
2022-09-04T07:41:50.053Z,16.13
2022-09-04T07:44:24.260Z,16.97
2022-09-04T07:47:00.288Z,19.03
2022-09-04T07:49:33.838Z,20.70
2022-09-04T07:52:10.493Z,21.55
2022-09-04T07:55:05.716Z,22.73
2022-09-04T07:57:51.136Z,22.13
2022-09-04T08:00:21.143Z,23.80
2022-09-04T08:03:13.843Z,24.40
2022-09-04T08:05:50.320Z,23.90
2022-09-04T08:08:54.016Z,24.38
2022-09-04T08:11:40.924Z,25.38
2022-09-04T08:14:27.589Z,25.87
2022-09-04T08:17:25.316Z,28.23
2022-09-04T08:20:02.365Z,29.87
2022-09-04T08:22:43.752Z,33.67
2022-09-04T08:25:21.100Z,38.55
2022-09-04T08:28:09.441Z,43.80
2022-09-04T08:30:47.510Z,50.28
2022-09-04T08:33:44.827Z,54.40
2022-09-04T08:36:24.723Z,57.75
2022-09-04T08:39:07.120Z,62.55
2022-09-04T08:42:16.882Z,63.75
2022-09-04T08:45:41.981Z,65.50
2022-09-04T08:48:48.901Z,65.20
2022-09-04T08:51:50.441Z,64.45
2022-09-04T08:54:48.514Z,63.35
2022-09-04T08:57:49.405Z,63.45
2022-09-04T09:00:20.766Z,63.40
2022-09-04T09:03:25.300Z,63.00
2022-09-04T09:06:16.371Z,61.15
2022-09-04T09:09:17.086Z,64.80
2022-09-04T09:12:20.876Z,64.18
2022-09-04T09:15:16.095Z,64.45
2022-09-04T09:18:01.024Z,63.05
2022-09-04T09:20:30.725Z,66.72
2022-09-04T09:23:18.614Z,64.15
2022-09-04T09:26:12.873Z,64.68
2022-09-04T09:29:18.558Z,65.77
2022-09-04T09:32:25.644Z,64.95
2022-09-04T09:35:31.952Z,65.57
2022-09-04T09:38:28.530Z,64.00
2022-09-04T09:41:33.330Z,66.53
2022-09-04T09:44:41.690Z,65.88
2022-09-04T09:47:48.841Z,67.28
2022-09-04T09:51:04.901Z,67.03
2022-09-04T09:54:08.491Z,69.43
2022-09-04T09:57:12.635Z,67.50
2022-09-04T10:00:06.210Z,68.75
2022-09-04T10:03:19.297Z,69.53
2022-09-04T10:06:36.590Z,69.45
2022-09-04T10:09:38.231Z,70.68
2022-09-04T10:12:48.262Z,71.87
2022-09-04T10:15:45.446Z,69.28
2022-09-04T10:18:44.117Z,67.07
2022-09-04T10:21:47.980Z,67.80
2022-09-04T10:25:02.762Z,67.45
2022-09-04T10:27:59.755Z,68.13
2022-09-04T10:30:36.503Z,66.88
2022-09-04T10:33:27.096Z,69.53
2022-09-04T10:36:13.608Z,69.93
2022-09-04T10:39:11.925Z,70.00
2022-09-04T10:42:14.572Z,69.18
2022-09-04T10:44:55.164Z,69.90
2022-09-04T10:47:45.090Z,70.82
2022-09-04T10:50:32.573Z,70.72
2022-09-04T10:53:23.526Z,70.88
2022-09-04T10:56:11.985Z,71.70
2022-09-04T10:59:00.184Z,69.93
2022-09-04T11:01:56.987Z,68.90
2022-09-04T11:05:03.633Z,68.28
2022-09-04T11:07:56.911Z,68.32
2022-09-04T11:10:42.507Z,69.35
2022-09-04T11:13:42.421Z,72.38
2022-09-04T11:16:29.321Z,69.95
2022-09-04T11:19:35.615Z,70.20
2022-09-04T11:22:34.535Z,71.03
2022-09-04T11:25:37.535Z,71.15
2022-09-04T11:28:44.366Z,70.05
2022-09-04T11:31:28.446Z,69.75
2022-09-04T11:34:39.061Z,69.93
2022-09-04T11:37:33.760Z,68.93
2022-09-04T11:40:43.457Z,70.90
2022-09-04T11:43:26.569Z,70.53
2022-09-04T11:46:36.381Z,71.80
2022-09-04T11:49:36.502Z,68.90
2022-09-04T11:52:16.716Z,72.40
2022-09-04T11:55:12.781Z,71.00
2022-09-04T11:58:02.960Z,71.15
2022-09-04T12:00:36.607Z,72.90
2022-09-04T12:03:33.254Z,72.80
2022-09-04T12:06:13.837Z,73.20
2022-09-04T12:09:03.057Z,73.25
2022-09-04T12:11:52.377Z,71.65
2022-09-04T12:14:43.790Z,73.60
2022-09-04T12:17:39.741Z,74.28
2022-09-04T12:20:35.688Z,73.03
2022-09-04T12:23:22.708Z,75.82
2022-09-04T12:26:26.371Z,73.88
2022-09-04T12:29:28.575Z,73.30
2022-09-04T12:32:26.500Z,73.13
2022-09-04T12:35:29.762Z,71.35
2022-09-04T12:38:28.870Z,71.85
2022-09-04T12:41:05.917Z,71.43
2022-09-04T12:43:46.317Z,69.87
2022-09-04T12:46:26.699Z,71.93
2022-09-04T12:49:08.310Z,71.97
2022-09-04T12:51:43.652Z,74.43
2022-09-04T12:54:23.210Z,72.22
2022-09-04T12:57:03.844Z,64.40
2022-09-04T12:59:50.478Z,62.40
2022-09-04T13:02:31.679Z,62.08
2022-09-04T13:05:10.752Z,61.33
2022-09-04T13:07:49.648Z,60.28
2022-09-04T13:10:24.831Z,58.92
2022-09-04T13:13:06.067Z,58.45
2022-09-04T13:15:43.358Z,60.13
2022-09-04T13:18:27.041Z,58.67
2022-09-04T13:21:03.380Z,59.30
2022-09-04T13:23:54.590Z,62.75
2022-09-04T13:26:34.853Z,61.40
2022-09-04T13:29:17.156Z,57.40
2022-09-04T13:32:07.948Z,60.47
2022-09-04T13:34:50.446Z,62.83
2022-09-04T13:37:28.046Z,64.28
2022-09-04T13:40:19.941Z,68.25
2022-09-04T13:43:17.496Z,66.72
2022-09-04T13:45:50.864Z,68.00
2022-09-04T13:48:38.439Z,66.25
2022-09-04T13:51:13.532Z,65.75
2022-09-04T13:54:02.754Z,68.85
2022-09-04T13:56:35.899Z,69.25
2022-09-04T13:59:09.669Z,70.50
2022-09-04T14:01:46.111Z,66.70
2022-09-04T14:04:19.493Z,60.53
2022-09-04T14:06:48.563Z,58.97
2022-09-04T14:09:17.999Z,60.55
2022-09-04T14:12:11.274Z,66.77
2022-09-04T14:15:07.685Z,58.85
2022-09-04T14:17:44.718Z,61.00
2022-09-04T14:20:21.788Z,60.65
2022-09-04T14:22:59.214Z,60.20
2022-09-04T14:25:37.297Z,60.60
2022-09-04T14:28:14.942Z,60.20
2022-09-04T14:30:57.660Z,59.78
2022-09-04T14:33:37.060Z,59.15
2022-09-04T14:36:21.850Z,61.25
2022-09-04T14:39:21.296Z,60.63
2022-09-04T14:42:04.709Z,61.30
2022-09-04T14:44:49.821Z,59.23
2022-09-04T14:47:29.871Z,58.08
2022-09-04T14:50:01.949Z,58.58
2022-09-04T14:52:35.515Z,58.60
2022-09-04T14:55:14.105Z,58.25
2022-09-04T14:57:47.662Z,57.88
2022-09-04T15:00:18.441Z,58.50
2022-09-04T15:02:52.194Z,58.83
2022-09-04T15:05:24.663Z,63.72
2022-09-04T15:08:00.238Z,60.83
2022-09-04T15:10:37.968Z,61.97
2022-09-04T15:13:35.379Z,65.13
2022-09-04T15:16:20.912Z,66.70
2022-09-04T15:18:57.311Z,67.57
2022-09-04T15:21:34.864Z,66.40
2022-09-04T15:24:13.016Z,65.95
2022-09-04T15:26:46.688Z,68.90
2022-09-04T15:29:22.611Z,68.07
2022-09-04T15:32:00.859Z,64.35
2022-09-04T15:34:29.931Z,66.70
2022-09-04T15:37:13.431Z,103.97
2022-09-04T15:39:50.471Z,79.93
2022-09-04T15:42:40.742Z,88.72
2022-09-04T15:45:15.718Z,88.18
2022-09-04T15:48:06.053Z,88.80
2022-09-04T15:50:37.465Z,89.50
2022-09-04T15:53:26.813Z,87.35
2022-09-04T15:56:06.360Z,87.55
2022-09-04T15:58:43.722Z,85.97
2022-09-04T16:01:17.196Z,86.78
2022-09-04T16:04:04.524Z,85.00
2022-09-04T16:06:39.632Z,88.78
2022-09-04T16:09:18.363Z,88.30
2022-09-04T16:11:55.897Z,86.45
2022-09-04T16:14:28.933Z,83.78
2022-09-04T16:17:02.244Z,84.45
2022-09-04T16:19:36.543Z,83.90
2022-09-04T16:22:11.534Z,86.60
2022-09-04T16:24:44.870Z,85.28
2022-09-04T16:27:16.998Z,88.15
2022-09-04T16:29:48.712Z,86.03
2022-09-04T16:32:22.420Z,86.25
2022-09-04T16:34:55.148Z,83.75
2022-09-04T16:37:28.454Z,83.57
2022-09-04T16:40:06.865Z,82.68
2022-09-04T16:42:42.588Z,81.72
2022-09-04T16:45:15.109Z,83.38
2022-09-04T16:47:48.717Z,81.93
2022-09-04T16:50:25.205Z,81.85
2022-09-04T16:53:12.222Z,83.10
2022-09-04T16:55:50.634Z,84.82
2022-09-04T16:58:40.030Z,83.38
2022-09-04T17:01:16.601Z,19.92
2022-09-04T17:04:12.692Z,20.97
2022-09-04T17:07:02.571Z,19.95
2022-09-04T17:09:43.089Z,20.00
2022-09-04T17:12:23.345Z,19.45
2022-09-04T17:14:58.732Z,18.88
2022-09-04T17:17:30.112Z,18.58
2022-09-04T17:20:06.397Z,18.70
2022-09-04T17:29:02.429Z,18.90
2022-09-04T17:29:07.806Z,19.48
2022-09-04T17:29:10.497Z,19.02
2022-09-04T17:31:27.547Z,18.65
2022-09-04T17:38:12.280Z,18.80
2022-09-04T17:40:36.610Z,18.70
2022-09-04T17:40:51.461Z,18.75
2022-09-04T17:42:58.485Z,19.60
2022-09-04T17:45:45.959Z,19.73
2022-09-04T17:48:24.175Z,19.33
2022-09-04T17:50:56.022Z,18.45
2022-09-04T17:53:34.256Z,19.83
2022-09-04T17:56:11.598Z,19.58
2022-09-04T17:58:44.480Z,19.40
2022-09-04T18:01:21.084Z,19.30
2022-09-04T18:04:20.801Z,19.38
2022-09-04T18:07:35.656Z,18.63
2022-09-04T18:10:04.828Z,19.75
2022-09-04T18:12:38.787Z,19.13
2022-09-04T18:15:33.683Z,19.10
2022-09-04T18:18:12.857Z,19.30
2022-09-04T18:20:46.513Z,19.08
2022-09-04T18:23:53.919Z,19.15
2022-09-04T18:26:40.786Z,18.50
2022-09-04T18:33:59.618Z,17.92
2022-09-04T18:37:06.422Z,18.05
2022-09-04T18:37:41.341Z,18.08
2022-09-04T18:38:20.671Z,17.90
2022-09-04T18:44:03.602Z,17.37
2022-09-04T18:50:31.930Z,17.83
2022-09-04T18:50:38.690Z,17.65
2022-09-04T18:50:50.872Z,17.90
2022-09-04T18:52:21.012Z,18.13
2022-09-04T18:54:54.822Z,18.13
2022-09-04T18:57:31.135Z,17.67
2022-09-04T19:00:07.932Z,17.35
2022-09-04T19:02:52.958Z,16.88
2022-09-04T19:05:24.198Z,17.25
2022-09-04T19:08:00.040Z,17.50
2022-09-04T19:10:31.315Z,16.95
2022-09-04T19:13:03.850Z,16.33
2022-09-04T19:15:45.034Z,17.70
2022-09-04T19:18:22.425Z,17.23
2022-09-04T19:20:54.014Z,16.65
2022-09-04T19:23:33.640Z,16.48
2022-09-04T19:26:09.912Z,16.60
2022-09-04T19:28:52.554Z,17.63
2022-09-04T19:31:30.015Z,17.05
2022-09-04T19:34:03.955Z,17.85
2022-09-04T19:36:38.926Z,17.73
2022-09-04T19:46:08.224Z,17.30
2022-09-04T19:46:14.570Z,16.60
2022-09-04T19:46:16.094Z,16.10
2022-09-04T19:48:18.665Z,16.90
2022-09-04T19:53:33.785Z,16.35
2022-09-04T19:53:49.557Z,17.02
2022-09-04T19:56:28.715Z,17.35
2022-09-04T19:59:03.510Z,16.42
2022-09-04T20:01:41.482Z,17.13
2022-09-04T20:04:23.834Z,17.40
2022-09-04T20:06:58.354Z,17.15
2022-09-04T20:09:33.975Z,16.70
2022-09-04T20:12:13.710Z,16.00
2022-09-04T20:14:46.746Z,18.30
2022-09-04T20:17:39.460Z,16.67
2022-09-04T20:20:15.670Z,16.45
2022-09-04T20:22:50.116Z,16.58
2022-09-04T20:25:32.643Z,15.70
2022-09-04T20:28:16.887Z,15.80
2022-09-04T20:30:49.491Z,16.65
2022-09-04T20:33:22.089Z,17.02
2022-09-04T20:35:55.321Z,16.45
2022-09-04T20:38:30.381Z,16.80
2022-09-04T20:41:04.280Z,16.10
2022-09-04T20:43:49.598Z,16.15
2022-09-04T20:51:55.226Z,17.70
2022-09-04T20:52:53.513Z,16.83
2022-09-04T20:52:58.595Z,16.98
2022-09-04T20:55:24.590Z,16.90
2022-09-04T21:03:12.463Z,16.30
2022-09-04T21:03:23.992Z,15.50
2022-09-04T21:04:42.035Z,15.70
2022-09-04T21:07:22.445Z,16.35
2022-09-04T21:10:00.610Z,16.13
2022-09-04T21:12:36.533Z,16.75
2022-09-04T21:15:11.511Z,14.93
2022-09-04T21:18:00.761Z,15.85
2022-09-04T21:21:00.035Z,16.15
2022-09-04T21:23:57.878Z,15.15
2022-09-04T21:26:54.170Z,14.75
2022-09-04T21:29:53.065Z,15.00
2022-09-04T21:32:33.699Z,15.25
2022-09-04T21:35:14.232Z,16.10
2022-09-04T21:37:52.087Z,15.05
2022-09-04T21:40:59.042Z,15.40
2022-09-04T21:44:02.500Z,16.00
2022-09-04T21:47:08.603Z,14.80
2022-09-04T21:50:15.704Z,15.43
2022-09-04T21:53:18.765Z,13.95
2022-09-04T21:59:47.916Z,14.15
2022-09-04T22:02:37.796Z,12.55
2022-09-04T22:02:39.336Z,13.90
2022-09-04T22:05:11.970Z,12.70
2022-09-04T22:12:14.836Z,12.60
2022-09-04T22:13:40.554Z,12.40
2022-09-04T22:13:54.374Z,12.85
2022-09-04T22:16:48.974Z,13.00
2022-09-04T22:19:52.662Z,13.32
2022-09-04T22:22:40.347Z,14.27
2022-09-04T22:25:31.689Z,13.88
2022-09-04T22:28:33.167Z,14.25
2022-09-04T22:31:40.102Z,14.20
2022-09-04T22:34:33.432Z,13.55
2022-09-04T22:37:28.471Z,13.60
2022-09-04T22:40:16.565Z,13.35
2022-09-04T22:42:50.694Z,12.77
2022-09-04T22:45:45.572Z,13.13
2022-09-04T22:48:47.239Z,12.30
2022-09-04T22:51:46.868Z,13.82
2022-09-04T22:54:41.655Z,13.60
2022-09-04T22:57:13.653Z,14.95
2022-09-04T23:00:10.855Z,15.23
2022-09-04T23:03:11.810Z,13.60
2022-09-04T23:08:10.518Z,13.57
2022-09-04T23:13:52.955Z,13.02
2022-09-04T23:13:56.569Z,12.80
2022-09-04T23:15:29.351Z,11.90
2022-09-04T23:24:15.140Z,11.30
2022-09-04T23:26:45.851Z,10.73
2022-09-04T23:26:46.818Z,10.57
2022-09-04T23:27:49.992Z,11.90
2022-09-04T23:30:25.617Z,11.80
2022-09-04T23:33:35.050Z,12.30
2022-09-04T23:36:11.498Z,12.20
2022-09-04T23:39:06.086Z,12.30
2022-09-04T23:41:52.603Z,13.63
2022-09-04T23:44:51.856Z,13.38
2022-09-04T23:47:48.652Z,11.83
2022-09-04T23:50:31.213Z,10.70
2022-09-04T23:53:09.149Z,10.00
2022-09-04T23:56:14.463Z,8.45
2022-09-04T23:59:12.697Z,6.40
